sensor_id;sensor_type;location;lat;lon;timestamp;temperature;humidity
18101;DHT22;9177;49.156;8.142;2023-02-26T00:01:29;19.80;78.00
18101;DHT22;9177;49.156;8.142;2023-02-26T00:03:58;19.80;78.00
18101;DHT22;9177;49.156;8.142;2023-02-26T00:06:27;19.80;78.00
18101;DHT22;9177;49.156;8.142;2023-02-26T00:08:55;19.80;78.00
18101;DHT22;9177;49.156;8.142;2023-02-26T00:11:22;19.80;77.90
18101;DHT22;9177;49.156;8.142;2023-02-26T00:13:51;19.80;78.00
18101;DHT22;9177;49.156;8.142;2023-02-26T00:16:26;19.80;77.80
18101;DHT22;9177;49.156;8.142;2023-02-26T00:18:53;19.80;77.80
18101;DHT22;9177;49.156;8.142;2023-02-26T00:21:22;19.80;77.80
18101;DHT22;9177;49.156;8.142;2023-02-26T00:23:50;19.80;77.80
18101;DHT22;9177;49.156;8.142;2023-02-26T00:26:18;19.80;77.70
18101;DHT22;9177;49.156;8.142;2023-02-26T00:28:45;19.80;77.70
18101;DHT22;9177;49.156;8.142;2023-02-26T00:31:16;19.80;77.70
18101;DHT22;9177;49.156;8.142;2023-02-26T00:33:45;19.80;77.60
18101;DHT22;9177;49.156;8.142;2023-02-26T00:36:21;19.80;77.60
18101;DHT22;9177;49.156;8.142;2023-02-26T00:39:00;19.80;77.60
18101;DHT22;9177;49.156;8.142;2023-02-26T00:41:32;19.80;77.60
18101;DHT22;9177;49.156;8.142;2023-02-26T00:44:01;19.80;77.60
18101;DHT22;9177;49.156;8.142;2023-02-26T00:46:37;19.80;77.60
18101;DHT22;9177;49.156;8.142;2023-02-26T00:49:16;19.80;77.50
18101;DHT22;9177;49.156;8.142;2023-02-26T00:51:47;19.80;77.60
18101;DHT22;9177;49.156;8.142;2023-02-26T00:54:18;19.80;77.50
18101;DHT22;9177;49.156;8.142;2023-02-26T00:56:46;19.80;77.50
18101;DHT22;9177;49.156;8.142;2023-02-26T00:59:13;19.80;77.50
18101;DHT22;9177;49.156;8.142;2023-02-26T01:01:41;19.80;77.50
18101;DHT22;9177;49.156;8.142;2023-02-26T01:04:09;19.80;77.40
18101;DHT22;9177;49.156;8.142;2023-02-26T01:06:40;19.80;77.40
18101;DHT22;9177;49.156;8.142;2023-02-26T01:09:15;19.80;77.40
18101;DHT22;9177;49.156;8.142;2023-02-26T01:11:43;19.80;77.40
18101;DHT22;9177;49.156;8.142;2023-02-26T01:14:10;19.80;77.30
18101;DHT22;9177;49.156;8.142;2023-02-26T01:16:43;19.80;77.30
18101;DHT22;9177;49.156;8.142;2023-02-26T01:19:18;19.80;77.30
18101;DHT22;9177;49.156;8.142;2023-02-26T01:21:50;19.80;77.30
18101;DHT22;9177;49.156;8.142;2023-02-26T01:24:18;19.80;77.20
18101;DHT22;9177;49.156;8.142;2023-02-26T01:26:48;19.80;77.20
18101;DHT22;9177;49.156;8.142;2023-02-26T01:29:16;19.80;77.10
18101;DHT22;9177;49.156;8.142;2023-02-26T01:31:48;19.80;77.10
18101;DHT22;9177;49.156;8.142;2023-02-26T01:34:18;19.80;77.10
18101;DHT22;9177;49.156;8.142;2023-02-26T01:36:52;19.80;77.10
18101;DHT22;9177;49.156;8.142;2023-02-26T01:39:25;19.80;77.10
18101;DHT22;9177;49.156;8.142;2023-02-26T01:41:58;19.80;77.10
18101;DHT22;9177;49.156;8.142;2023-02-26T01:44:30;19.80;77.00
18101;DHT22;9177;49.156;8.142;2023-02-26T01:47:11;19.80;77.00
18101;DHT22;9177;49.156;8.142;2023-02-26T01:49:39;19.80;77.10
18101;DHT22;9177;49.156;8.142;2023-02-26T01:55:12;19.80;77.00
18101;DHT22;9177;49.156;8.142;2023-02-26T01:57:39;19.80;77.00
18101;DHT22;9177;49.156;8.142;2023-02-26T02:00:07;19.80;77.00
18101;DHT22;9177;49.156;8.142;2023-02-26T02:02:36;19.80;77.00
18101;DHT22;9177;49.156;8.142;2023-02-26T02:05:06;19.80;77.00
18101;DHT22;9177;49.156;8.142;2023-02-26T02:07:34;19.80;77.00
18101;DHT22;9177;49.156;8.142;2023-02-26T02:10:04;19.80;77.80
18101;DHT22;9177;49.156;8.142;2023-02-26T02:12:35;19.80;76.90
18101;DHT22;9177;49.156;8.142;2023-02-26T02:15:09;19.80;76.90
18101;DHT22;9177;49.156;8.142;2023-02-26T02:17:45;19.80;76.90
18101;DHT22;9177;49.156;8.142;2023-02-26T02:20:36;19.80;77.00
18101;DHT22;9177;49.156;8.142;2023-02-26T02:23:10;19.80;76.90
18101;DHT22;9177;49.156;8.142;2023-02-26T02:28:39;19.80;76.90
18101;DHT22;9177;49.156;8.142;2023-02-26T02:31:13;19.80;77.70
18101;DHT22;9177;49.156;8.142;2023-02-26T02:33:46;19.80;76.80
18101;DHT22;9177;49.156;8.142;2023-02-26T02:36:19;19.80;76.80
18101;DHT22;9177;49.156;8.142;2023-02-26T02:38:53;19.80;76.80
18101;DHT22;9177;49.156;8.142;2023-02-26T02:41:25;19.80;76.80
18101;DHT22;9177;49.156;8.142;2023-02-26T02:43:59;19.80;76.80
18101;DHT22;9177;49.156;8.142;2023-02-26T02:46:29;19.80;76.80
18101;DHT22;9177;49.156;8.142;2023-02-26T02:49:00;19.80;76.80
18101;DHT22;9177;49.156;8.142;2023-02-26T02:51:30;19.80;76.80
18101;DHT22;9177;49.156;8.142;2023-02-26T02:54:02;19.80;76.80
18101;DHT22;9177;49.156;8.142;2023-02-26T02:56:33;19.80;76.80
18101;DHT22;9177;49.156;8.142;2023-02-26T02:59:05;19.80;76.70
18101;DHT22;9177;49.156;8.142;2023-02-26T03:01:39;19.80;76.60
18101;DHT22;9177;49.156;8.142;2023-02-26T03:04:08;19.80;76.70
18101;DHT22;9177;49.156;8.142;2023-02-26T03:06:36;19.80;76.70
18101;DHT22;9177;49.156;8.142;2023-02-26T03:09:05;19.80;76.80
18101;DHT22;9177;49.156;8.142;2023-02-26T03:11:33;19.80;77.60
18101;DHT22;9177;49.156;8.142;2023-02-26T03:14:00;19.80;76.70
18101;DHT22;9177;49.156;8.142;2023-02-26T03:16:42;19.80;76.60
18101;DHT22;9177;49.156;8.142;2023-02-26T03:19:19;19.80;76.60
18101;DHT22;9177;49.156;8.142;2023-02-26T03:21:50;19.80;76.60
18101;DHT22;9177;49.156;8.142;2023-02-26T03:24:25;19.80;76.60
18101;DHT22;9177;49.156;8.142;2023-02-26T03:26:57;19.80;76.60
18101;DHT22;9177;49.156;8.142;2023-02-26T03:29:31;19.80;76.60
18101;DHT22;9177;49.156;8.142;2023-02-26T03:32:04;19.80;76.60
18101;DHT22;9177;49.156;8.142;2023-02-26T03:34:36;19.80;76.60
18101;DHT22;9177;49.156;8.142;2023-02-26T03:37:06;19.80;76.60
18101;DHT22;9177;49.156;8.142;2023-02-26T03:39:38;19.80;76.50
18101;DHT22;9177;49.156;8.142;2023-02-26T03:42:08;19.80;76.60
18101;DHT22;9177;49.156;8.142;2023-02-26T03:44:40;19.80;76.50
18101;DHT22;9177;49.156;8.142;2023-02-26T03:47:12;19.80;76.40
18101;DHT22;9177;49.156;8.142;2023-02-26T03:49:44;19.80;76.50
18101;DHT22;9177;49.156;8.142;2023-02-26T03:52:14;19.80;76.40
18101;DHT22;9177;49.156;8.142;2023-02-26T03:54:44;19.80;76.40
18101;DHT22;9177;49.156;8.142;2023-02-26T03:57:12;19.80;76.40
18101;DHT22;9177;49.156;8.142;2023-02-26T03:59:39;19.80;76.40
18101;DHT22;9177;49.156;8.142;2023-02-26T04:02:12;19.80;76.40
18101;DHT22;9177;49.156;8.142;2023-02-26T04:04:42;19.80;76.40
18101;DHT22;9177;49.156;8.142;2023-02-26T04:07:12;19.80;76.40
18101;DHT22;9177;49.156;8.142;2023-02-26T04:09:40;19.80;76.40
18101;DHT22;9177;49.156;8.142;2023-02-26T04:12:07;19.70;76.30
18101;DHT22;9177;49.156;8.142;2023-02-26T04:14:35;19.80;76.40
18101;DHT22;9177;49.156;8.142;2023-02-26T04:17:02;19.70;76.30
18101;DHT22;9177;49.156;8.142;2023-02-26T04:19:30;19.80;76.30
18101;DHT22;9177;49.156;8.142;2023-02-26T04:21:57;19.80;76.30
18101;DHT22;9177;49.156;8.142;2023-02-26T04:24:24;19.80;77.10
18101;DHT22;9177;49.156;8.142;2023-02-26T04:26:50;19.70;76.30
18101;DHT22;9177;49.156;8.142;2023-02-26T04:29:17;19.80;76.30
18101;DHT22;9177;49.156;8.142;2023-02-26T04:31:44;19.80;76.30
18101;DHT22;9177;49.156;8.142;2023-02-26T04:34:11;19.70;76.20
18101;DHT22;9177;49.156;8.142;2023-02-26T04:36:39;19.70;76.20
18101;DHT22;9177;49.156;8.142;2023-02-26T04:39:06;19.80;76.20
18101;DHT22;9177;49.156;8.142;2023-02-26T04:41:35;19.70;76.10
18101;DHT22;9177;49.156;8.142;2023-02-26T04:44:02;19.70;76.20
18101;DHT22;9177;49.156;8.142;2023-02-26T04:46:32;19.70;76.10
18101;DHT22;9177;49.156;8.142;2023-02-26T04:48:59;19.70;76.10
18101;DHT22;9177;49.156;8.142;2023-02-26T04:51:26;19.70;76.10
18101;DHT22;9177;49.156;8.142;2023-02-26T04:53:54;19.70;76.10
18101;DHT22;9177;49.156;8.142;2023-02-26T04:56:21;19.70;76.10
18101;DHT22;9177;49.156;8.142;2023-02-26T04:58:48;19.70;76.10
18101;DHT22;9177;49.156;8.142;2023-02-26T05:01:15;19.70;76.00
18101;DHT22;9177;49.156;8.142;2023-02-26T05:03:41;19.70;76.00
18101;DHT22;9177;49.156;8.142;2023-02-26T05:06:08;19.70;76.00
18101;DHT22;9177;49.156;8.142;2023-02-26T05:08:35;19.80;76.10
18101;DHT22;9177;49.156;8.142;2023-02-26T05:11:08;19.70;76.00
18101;DHT22;9177;49.156;8.142;2023-02-26T05:13:35;19.70;76.00
18101;DHT22;9177;49.156;8.142;2023-02-26T05:16:02;19.70;76.10
18101;DHT22;9177;49.156;8.142;2023-02-26T05:18:29;19.70;76.00
18101;DHT22;9177;49.156;8.142;2023-02-26T05:20:59;19.70;76.00
18101;DHT22;9177;49.156;8.142;2023-02-26T05:23:26;19.70;76.00
18101;DHT22;9177;49.156;8.142;2023-02-26T05:25:54;19.70;76.00
18101;DHT22;9177;49.156;8.142;2023-02-26T05:28:22;19.70;76.00
18101;DHT22;9177;49.156;8.142;2023-02-26T05:30:50;19.70;76.00
18101;DHT22;9177;49.156;8.142;2023-02-26T05:33:17;19.70;76.00
18101;DHT22;9177;49.156;8.142;2023-02-26T05:35:45;19.70;76.00
18101;DHT22;9177;49.156;8.142;2023-02-26T05:38:12;19.70;76.00
18101;DHT22;9177;49.156;8.142;2023-02-26T05:40:39;19.70;75.90
18101;DHT22;9177;49.156;8.142;2023-02-26T05:43:06;19.70;76.00
18101;DHT22;9177;49.156;8.142;2023-02-26T05:45:34;19.70;75.90
18101;DHT22;9177;49.156;8.142;2023-02-26T05:48:01;19.70;75.90
18101;DHT22;9177;49.156;8.142;2023-02-26T05:50:28;19.70;76.00
18101;DHT22;9177;49.156;8.142;2023-02-26T05:52:55;19.70;75.90
18101;DHT22;9177;49.156;8.142;2023-02-26T05:55:23;19.70;75.90
18101;DHT22;9177;49.156;8.142;2023-02-26T05:57:49;19.70;75.90
18101;DHT22;9177;49.156;8.142;2023-02-26T06:00:17;19.70;75.90
18101;DHT22;9177;49.156;8.142;2023-02-26T06:02:48;19.70;75.90
18101;DHT22;9177;49.156;8.142;2023-02-26T06:05:14;19.70;75.90
18101;DHT22;9177;49.156;8.142;2023-02-26T06:07:41;19.70;75.90
18101;DHT22;9177;49.156;8.142;2023-02-26T06:10:10;19.70;75.90
18101;DHT22;9177;49.156;8.142;2023-02-26T06:12:37;19.70;75.90
18101;DHT22;9177;49.156;8.142;2023-02-26T06:15:09;19.70;75.90
18101;DHT22;9177;49.156;8.142;2023-02-26T06:17:36;19.70;75.90
18101;DHT22;9177;49.156;8.142;2023-02-26T06:20:05;19.70;75.90
18101;DHT22;9177;49.156;8.142;2023-02-26T06:22:35;19.70;75.80
18101;DHT22;9177;49.156;8.142;2023-02-26T06:25:01;19.70;75.80
18101;DHT22;9177;49.156;8.142;2023-02-26T06:27:28;19.70;75.80
18101;DHT22;9177;49.156;8.142;2023-02-26T06:29:55;19.80;75.80
18101;DHT22;9177;49.156;8.142;2023-02-26T06:32:22;19.70;75.80
18101;DHT22;9177;49.156;8.142;2023-02-26T06:34:49;19.70;75.80
18101;DHT22;9177;49.156;8.142;2023-02-26T06:37:17;19.70;75.80
18101;DHT22;9177;49.156;8.142;2023-02-26T06:39:44;19.70;75.80
18101;DHT22;9177;49.156;8.142;2023-02-26T06:42:11;19.70;75.80
18101;DHT22;9177;49.156;8.142;2023-02-26T06:44:38;19.70;75.80
18101;DHT22;9177;49.156;8.142;2023-02-26T06:47:05;19.70;75.80
18101;DHT22;9177;49.156;8.142;2023-02-26T06:49:32;19.70;75.80
18101;DHT22;9177;49.156;8.142;2023-02-26T06:51:59;19.70;75.80
18101;DHT22;9177;49.156;8.142;2023-02-26T06:54:27;19.70;75.70
18101;DHT22;9177;49.156;8.142;2023-02-26T06:56:54;19.70;75.70
18101;DHT22;9177;49.156;8.142;2023-02-26T06:59:22;19.70;75.70
18101;DHT22;9177;49.156;8.142;2023-02-26T07:01:49;19.70;75.70
18101;DHT22;9177;49.156;8.142;2023-02-26T07:04:15;19.80;75.80
18101;DHT22;9177;49.156;8.142;2023-02-26T07:06:43;19.70;75.60
18101;DHT22;9177;49.156;8.142;2023-02-26T07:09:09;19.70;75.60
18101;DHT22;9177;49.156;8.142;2023-02-26T07:11:37;19.70;75.60
18101;DHT22;9177;49.156;8.142;2023-02-26T07:14:04;19.70;75.60
18101;DHT22;9177;49.156;8.142;2023-02-26T07:16:31;19.70;75.60
18101;DHT22;9177;49.156;8.142;2023-02-26T07:18:58;19.70;75.60
18101;DHT22;9177;49.156;8.142;2023-02-26T07:21:25;19.70;75.60
18101;DHT22;9177;49.156;8.142;2023-02-26T07:23:52;19.80;75.70
18101;DHT22;9177;49.156;8.142;2023-02-26T07:26:18;19.70;75.60
18101;DHT22;9177;49.156;8.142;2023-02-26T07:28:47;19.70;75.60
18101;DHT22;9177;49.156;8.142;2023-02-26T07:31:14;19.70;75.60
18101;DHT22;9177;49.156;8.142;2023-02-26T07:33:41;19.70;75.60
18101;DHT22;9177;49.156;8.142;2023-02-26T07:36:08;19.70;75.60
18101;DHT22;9177;49.156;8.142;2023-02-26T07:38:35;19.80;75.60
18101;DHT22;9177;49.156;8.142;2023-02-26T07:41:02;19.70;75.50
18101;DHT22;9177;49.156;8.142;2023-02-26T07:43:29;19.70;75.60
18101;DHT22;9177;49.156;8.142;2023-02-26T07:45:58;19.70;75.60
18101;DHT22;9177;49.156;8.142;2023-02-26T07:48:25;19.70;75.50
18101;DHT22;9177;49.156;8.142;2023-02-26T07:50:52;19.70;75.40
18101;DHT22;9177;49.156;8.142;2023-02-26T07:53:19;19.70;75.40
18101;DHT22;9177;49.156;8.142;2023-02-26T07:55:46;19.80;75.40
18101;DHT22;9177;49.156;8.142;2023-02-26T07:58:13;19.80;75.40
18101;DHT22;9177;49.156;8.142;2023-02-26T08:00:41;19.80;75.40
18101;DHT22;9177;49.156;8.142;2023-02-26T08:03:09;19.80;75.40
18101;DHT22;9177;49.156;8.142;2023-02-26T08:05:36;19.80;75.40
18101;DHT22;9177;49.156;8.142;2023-02-26T08:08:02;19.80;75.30
18101;DHT22;9177;49.156;8.142;2023-02-26T08:10:30;19.80;75.30
18101;DHT22;9177;49.156;8.142;2023-02-26T08:12:56;19.80;75.30
18101;DHT22;9177;49.156;8.142;2023-02-26T08:15:23;19.80;75.20
18101;DHT22;9177;49.156;8.142;2023-02-26T08:17:51;19.80;75.10
18101;DHT22;9177;49.156;8.142;2023-02-26T08:20:19;19.90;75.10
18101;DHT22;9177;49.156;8.142;2023-02-26T08:22:46;19.90;74.90
18101;DHT22;9177;49.156;8.142;2023-02-26T08:25:13;19.90;74.90
18101;DHT22;9177;49.156;8.142;2023-02-26T08:27:40;19.90;74.70
18101;DHT22;9177;49.156;8.142;2023-02-26T08:30:09;19.90;74.70
18101;DHT22;9177;49.156;8.142;2023-02-26T08:32:37;19.90;74.70
18101;DHT22;9177;49.156;8.142;2023-02-26T08:35:07;19.90;74.80
18101;DHT22;9177;49.156;8.142;2023-02-26T08:37:35;19.90;74.80
18101;DHT22;9177;49.156;8.142;2023-02-26T08:40:03;19.90;74.70
18101;DHT22;9177;49.156;8.142;2023-02-26T08:42:30;19.90;74.80
18101;DHT22;9177;49.156;8.142;2023-02-26T08:44:57;19.90;74.70
18101;DHT22;9177;49.156;8.142;2023-02-26T08:47:24;19.90;74.70
18101;DHT22;9177;49.156;8.142;2023-02-26T08:49:51;19.90;74.70
18101;DHT22;9177;49.156;8.142;2023-02-26T08:52:18;19.90;74.70
18101;DHT22;9177;49.156;8.142;2023-02-26T08:54:46;19.90;74.70
18101;DHT22;9177;49.156;8.142;2023-02-26T08:57:16;19.90;74.70
18101;DHT22;9177;49.156;8.142;2023-02-26T08:59:43;19.90;74.60
18101;DHT22;9177;49.156;8.142;2023-02-26T09:02:11;19.90;74.60
18101;DHT22;9177;49.156;8.142;2023-02-26T09:04:38;19.90;74.60
18101;DHT22;9177;49.156;8.142;2023-02-26T09:07:05;19.90;74.60
18101;DHT22;9177;49.156;8.142;2023-02-26T09:09:31;19.90;74.50
18101;DHT22;9177;49.156;8.142;2023-02-26T09:12:00;19.90;74.50
18101;DHT22;9177;49.156;8.142;2023-02-26T09:14:27;19.90;74.40
18101;DHT22;9177;49.156;8.142;2023-02-26T09:16:54;19.90;74.40
18101;DHT22;9177;49.156;8.142;2023-02-26T09:19:20;19.90;74.40
18101;DHT22;9177;49.156;8.142;2023-02-26T09:21:48;19.90;74.30
18101;DHT22;9177;49.156;8.142;2023-02-26T09:24:14;19.90;74.40
18101;DHT22;9177;49.156;8.142;2023-02-26T09:26:41;19.90;74.30
18101;DHT22;9177;49.156;8.142;2023-02-26T09:29:10;19.90;75.10
18101;DHT22;9177;49.156;8.142;2023-02-26T09:31:38;20.00;74.10
18101;DHT22;9177;49.156;8.142;2023-02-26T09:34:05;20.00;73.90
18101;DHT22;9177;49.156;8.142;2023-02-26T09:36:32;20.00;73.90
18101;DHT22;9177;49.156;8.142;2023-02-26T09:38:59;20.00;73.90
18101;DHT22;9177;49.156;8.142;2023-02-26T09:41:29;20.00;73.80
18101;DHT22;9177;49.156;8.142;2023-02-26T09:44:14;20.00;73.80
18101;DHT22;9177;49.156;8.142;2023-02-26T09:46:47;20.00;73.80
18101;DHT22;9177;49.156;8.142;2023-02-26T09:49:25;20.00;73.90
18101;DHT22;9177;49.156;8.142;2023-02-26T09:51:56;20.00;73.80
18101;DHT22;9177;49.156;8.142;2023-02-26T09:54:28;20.00;73.70
18101;DHT22;9177;49.156;8.142;2023-02-26T09:56:59;20.00;73.70
18101;DHT22;9177;49.156;8.142;2023-02-26T09:59:30;20.00;73.70
18101;DHT22;9177;49.156;8.142;2023-02-26T10:02:00;20.00;73.50
18101;DHT22;9177;49.156;8.142;2023-02-26T10:04:46;20.00;73.50
18101;DHT22;9177;49.156;8.142;2023-02-26T10:07:21;20.00;73.50
18101;DHT22;9177;49.156;8.142;2023-02-26T10:09:58;20.10;73.40
18101;DHT22;9177;49.156;8.142;2023-02-26T10:12:28;20.10;73.20
18101;DHT22;9177;49.156;8.142;2023-02-26T10:15:02;20.10;73.10
18101;DHT22;9177;49.156;8.142;2023-02-26T10:17:33;20.20;73.90
18101;DHT22;9177;49.156;8.142;2023-02-26T10:20:03;20.20;72.90
18101;DHT22;9177;49.156;8.142;2023-02-26T10:22:35;20.20;72.90
18101;DHT22;9177;49.156;8.142;2023-02-26T10:25:08;20.20;72.80
18101;DHT22;9177;49.156;8.142;2023-02-26T10:27:43;20.30;72.80
18101;DHT22;9177;49.156;8.142;2023-02-26T10:30:21;20.20;72.90
18101;DHT22;9177;49.156;8.142;2023-02-26T10:32:57;20.20;72.90
18101;DHT22;9177;49.156;8.142;2023-02-26T10:35:27;20.20;73.00
18101;DHT22;9177;49.156;8.142;2023-02-26T10:37:57;20.20;72.90
18101;DHT22;9177;49.156;8.142;2023-02-26T10:40:30;20.10;72.90
18101;DHT22;9177;49.156;8.142;2023-02-26T10:42:59;20.10;72.90
18101;DHT22;9177;49.156;8.142;2023-02-26T10:45:45;20.10;73.00
18101;DHT22;9177;49.156;8.142;2023-02-26T10:48:29;20.10;72.90
18101;DHT22;9177;49.156;8.142;2023-02-26T10:50:59;20.10;72.90
18101;DHT22;9177;49.156;8.142;2023-02-26T10:53:31;20.10;72.90
18101;DHT22;9177;49.156;8.142;2023-02-26T10:56:03;20.20;72.90
18101;DHT22;9177;49.156;8.142;2023-02-26T10:58:31;20.10;72.70
18101;DHT22;9177;49.156;8.142;2023-02-26T11:00:59;20.10;72.80
18101;DHT22;9177;49.156;8.142;2023-02-26T11:03:31;20.10;72.80
18101;DHT22;9177;49.156;8.142;2023-02-26T11:06:00;20.10;72.90
18101;DHT22;9177;49.156;8.142;2023-02-26T11:08:31;20.10;72.90
18101;DHT22;9177;49.156;8.142;2023-02-26T11:11:00;20.00;72.80
18101;DHT22;9177;49.156;8.142;2023-02-26T11:13:30;20.10;72.90
18101;DHT22;9177;49.156;8.142;2023-02-26T11:16:00;20.00;72.90
18101;DHT22;9177;49.156;8.142;2023-02-26T11:18:38;20.00;72.70
18101;DHT22;9177;49.156;8.142;2023-02-26T11:21:07;20.00;72.70
18101;DHT22;9177;49.156;8.142;2023-02-26T11:23:34;20.00;72.70
18101;DHT22;9177;49.156;8.142;2023-02-26T11:26:05;20.00;72.70
18101;DHT22;9177;49.156;8.142;2023-02-26T11:28:35;20.00;72.70
18101;DHT22;9177;49.156;8.142;2023-02-26T11:31:06;20.00;72.70
18101;DHT22;9177;49.156;8.142;2023-02-26T11:33:37;20.00;72.70
18101;DHT22;9177;49.156;8.142;2023-02-26T11:36:08;20.00;72.70
18101;DHT22;9177;49.156;8.142;2023-02-26T11:38:37;19.90;72.70
18101;DHT22;9177;49.156;8.142;2023-02-26T11:41:04;20.00;72.70
18101;DHT22;9177;49.156;8.142;2023-02-26T11:43:36;19.90;72.70
18101;DHT22;9177;49.156;8.142;2023-02-26T11:46:08;19.90;72.70
18101;DHT22;9177;49.156;8.142;2023-02-26T11:48:39;19.90;73.50
18101;DHT22;9177;49.156;8.142;2023-02-26T11:51:10;19.90;72.70
18101;DHT22;9177;49.156;8.142;2023-02-26T11:53:42;19.90;72.70
18101;DHT22;9177;49.156;8.142;2023-02-26T11:56:12;19.90;72.70
18101;DHT22;9177;49.156;8.142;2023-02-26T11:58:42;19.90;72.70
18101;DHT22;9177;49.156;8.142;2023-02-26T12:01:13;19.90;72.60
18101;DHT22;9177;49.156;8.142;2023-02-26T12:03:44;19.90;72.60
18101;DHT22;9177;49.156;8.142;2023-02-26T12:06:16;19.90;72.60
18101;DHT22;9177;49.156;8.142;2023-02-26T12:08:44;19.90;72.50
18101;DHT22;9177;49.156;8.142;2023-02-26T12:11:24;19.90;72.60
18101;DHT22;9177;49.156;8.142;2023-02-26T12:14:07;19.90;72.60
18101;DHT22;9177;49.156;8.142;2023-02-26T12:16:46;19.90;72.60
18101;DHT22;9177;49.156;8.142;2023-02-26T12:19:24;19.90;72.50
18101;DHT22;9177;49.156;8.142;2023-02-26T12:22:10;19.90;72.50
18101;DHT22;9177;49.156;8.142;2023-02-26T12:24:56;19.90;72.50
18101;DHT22;9177;49.156;8.142;2023-02-26T12:27:39;19.90;72.50
18101;DHT22;9177;49.156;8.142;2023-02-26T12:30:20;19.90;72.50
18101;DHT22;9177;49.156;8.142;2023-02-26T12:33:07;19.90;72.40
18101;DHT22;9177;49.156;8.142;2023-02-26T12:38:43;19.90;72.50
18101;DHT22;9177;49.156;8.142;2023-02-26T12:44:16;19.90;72.40
18101;DHT22;9177;49.156;8.142;2023-02-26T12:46:59;19.90;72.30
18101;DHT22;9177;49.156;8.142;2023-02-26T12:53:05;19.90;72.30
18101;DHT22;9177;49.156;8.142;2023-02-26T12:55:47;19.90;72.40
18101;DHT22;9177;49.156;8.142;2023-02-26T12:58:45;19.90;72.30
18101;DHT22;9177;49.156;8.142;2023-02-26T13:01:26;19.90;72.30
18101;DHT22;9177;49.156;8.142;2023-02-26T13:04:21;19.90;72.20
18101;DHT22;9177;49.156;8.142;2023-02-26T13:07:04;19.90;72.20
18101;DHT22;9177;49.156;8.142;2023-02-26T13:09:44;19.90;72.20
18101;DHT22;9177;49.156;8.142;2023-02-26T13:12:30;19.90;72.20
18101;DHT22;9177;49.156;8.142;2023-02-26T13:15:10;19.90;72.20
18101;DHT22;9177;49.156;8.142;2023-02-26T13:17:49;19.90;72.20
18101;DHT22;9177;49.156;8.142;2023-02-26T13:20:21;19.90;72.10
18101;DHT22;9177;49.156;8.142;2023-02-26T13:22:53;19.90;72.20
18101;DHT22;9177;49.156;8.142;2023-02-26T13:25:24;19.90;72.20
18101;DHT22;9177;49.156;8.142;2023-02-26T13:27:54;19.90;72.20
18101;DHT22;9177;49.156;8.142;2023-02-26T13:30:25;19.80;72.10
18101;DHT22;9177;49.156;8.142;2023-02-26T13:32:55;19.90;72.20
18101;DHT22;9177;49.156;8.142;2023-02-26T13:35:27;19.80;72.20
18101;DHT22;9177;49.156;8.142;2023-02-26T13:37:58;19.90;72.30
18101;DHT22;9177;49.156;8.142;2023-02-26T13:40:40;19.90;72.30
18101;DHT22;9177;49.156;8.142;2023-02-26T13:43:20;19.90;72.30
18101;DHT22;9177;49.156;8.142;2023-02-26T13:46:00;19.90;72.30
18101;DHT22;9177;49.156;8.142;2023-02-26T13:48:38;19.90;72.50
18101;DHT22;9177;49.156;8.142;2023-02-26T13:51:10;19.90;72.50
18101;DHT22;9177;49.156;8.142;2023-02-26T13:53:51;19.90;72.50
18101;DHT22;9177;49.156;8.142;2023-02-26T13:56:22;19.90;72.50
18101;DHT22;9177;49.156;8.142;2023-02-26T13:58:52;19.90;72.60
18101;DHT22;9177;49.156;8.142;2023-02-26T14:01:27;19.90;72.70
18101;DHT22;9177;49.156;8.142;2023-02-26T14:04:21;19.90;72.70
18101;DHT22;9177;49.156;8.142;2023-02-26T14:06:51;19.90;72.90
18101;DHT22;9177;49.156;8.142;2023-02-26T14:09:45;19.90;72.80
18101;DHT22;9177;49.156;8.142;2023-02-26T14:12:34;19.90;72.90
18101;DHT22;9177;49.156;8.142;2023-02-26T14:15:36;19.90;72.90
18101;DHT22;9177;49.156;8.142;2023-02-26T14:18:12;19.90;72.80
18101;DHT22;9177;49.156;8.142;2023-02-26T14:20:44;19.90;72.80
18101;DHT22;9177;49.156;8.142;2023-02-26T14:26:12;19.90;72.90
18101;DHT22;9177;49.156;8.142;2023-02-26T14:31:25;19.90;72.90
18101;DHT22;9177;49.156;8.142;2023-02-26T14:34:10;19.90;72.90
18101;DHT22;9177;49.156;8.142;2023-02-26T14:36:43;19.90;73.00
18101;DHT22;9177;49.156;8.142;2023-02-26T14:39:21;19.90;73.00
18101;DHT22;9177;49.156;8.142;2023-02-26T14:41:55;19.90;73.00
18101;DHT22;9177;49.156;8.142;2023-02-26T14:44:25;19.90;73.00
18101;DHT22;9177;49.156;8.142;2023-02-26T14:46:52;19.90;73.00
18101;DHT22;9177;49.156;8.142;2023-02-26T14:49:23;19.90;73.00
18101;DHT22;9177;49.156;8.142;2023-02-26T14:52:05;19.90;73.00
18101;DHT22;9177;49.156;8.142;2023-02-26T14:54:53;20.00;73.10
18101;DHT22;9177;49.156;8.142;2023-02-26T14:57:29;20.00;73.10
18101;DHT22;9177;49.156;8.142;2023-02-26T15:00:12;19.90;73.00
18101;DHT22;9177;49.156;8.142;2023-02-26T15:03:03;19.90;73.00
18101;DHT22;9177;49.156;8.142;2023-02-26T15:05:41;20.00;73.20
18101;DHT22;9177;49.156;8.142;2023-02-26T15:08:28;19.90;73.10
18101;DHT22;9177;49.156;8.142;2023-02-26T15:11:19;19.90;73.20
18101;DHT22;9177;49.156;8.142;2023-02-26T15:14:03;19.90;73.20
18101;DHT22;9177;49.156;8.142;2023-02-26T15:16:43;19.90;73.20
18101;DHT22;9177;49.156;8.142;2023-02-26T15:19:26;19.90;73.20
18101;DHT22;9177;49.156;8.142;2023-02-26T15:22:07;19.90;73.30
18101;DHT22;9177;49.156;8.142;2023-02-26T15:24:39;19.90;73.40
18101;DHT22;9177;49.156;8.142;2023-02-26T15:27:08;19.90;73.50
18101;DHT22;9177;49.156;8.142;2023-02-26T15:29:40;20.00;73.60
18101;DHT22;9177;49.156;8.142;2023-02-26T15:32:14;19.90;73.60
18101;DHT22;9177;49.156;8.142;2023-02-26T15:34:45;19.90;73.60
18101;DHT22;9177;49.156;8.142;2023-02-26T15:37:19;19.90;73.50
18101;DHT22;9177;49.156;8.142;2023-02-26T15:39:48;19.90;73.60
18101;DHT22;9177;49.156;8.142;2023-02-26T15:42:16;19.90;73.60
18101;DHT22;9177;49.156;8.142;2023-02-26T15:44:46;19.90;73.60
18101;DHT22;9177;49.156;8.142;2023-02-26T15:47:14;19.90;73.60
18101;DHT22;9177;49.156;8.142;2023-02-26T15:49:44;19.90;73.60
18101;DHT22;9177;49.156;8.142;2023-02-26T15:52:15;19.90;73.70
18101;DHT22;9177;49.156;8.142;2023-02-26T15:54:46;19.90;73.70
18101;DHT22;9177;49.156;8.142;2023-02-26T15:57:16;19.90;73.70
18101;DHT22;9177;49.156;8.142;2023-02-26T15:59:47;19.90;73.70
18101;DHT22;9177;49.156;8.142;2023-02-26T16:02:30;19.90;73.70
18101;DHT22;9177;49.156;8.142;2023-02-26T16:04:57;19.90;73.70
18101;DHT22;9177;49.156;8.142;2023-02-26T16:07:25;19.90;73.70
18101;DHT22;9177;49.156;8.142;2023-02-26T16:09:53;19.90;73.90
18101;DHT22;9177;49.156;8.142;2023-02-26T16:12:21;19.90;74.00
18101;DHT22;9177;49.156;8.142;2023-02-26T16:15:02;19.90;74.60
18101;DHT22;9177;49.156;8.142;2023-02-26T16:17:32;19.90;73.70
18101;DHT22;9177;49.156;8.142;2023-02-26T16:20:04;19.90;73.70
18101;DHT22;9177;49.156;8.142;2023-02-26T16:22:34;20.00;73.70
18101;DHT22;9177;49.156;8.142;2023-02-26T16:25:06;20.00;73.70
18101;DHT22;9177;49.156;8.142;2023-02-26T16:27:35;20.00;73.80
18101;DHT22;9177;49.156;8.142;2023-02-26T16:30:04;20.00;73.70
18101;DHT22;9177;49.156;8.142;2023-02-26T16:32:33;20.00;73.80